Aeroporto :







RITROVATECI SU...

 
LOGIN :

Iscrizione | Disclaimer

   EN    FR    IT 

 









Sommario :    VFR   VFR Marginale   IFR   IFR Intensivo   IFR Molto Intensivo
Visibilità : 
Base nubi : 
>= 8 km
>= 3000ft
5 / 8 km
1000 / 3000 ft
1500m / 5 km
500 / 1000 ft
800 / 1500m
200 / 500 ft
< 800m
< 200 ft
Simboli :   Temporali  Nebbia  Neve Forte  Precipitazioni Forti  Vento > 20 kt






- Altitudine del aeroporto : 129 ft
- Codice IATA : YVP


CYVP - Kuujjuak

ULTIMO METAR :
  • 291707Z 07014KT 15SM BKN015 OVC022 05/02 A2974 RMK SC7SC1 SLP076

METARs OBSOLETI :
  • 291622Z 07012KT 15SM BKN010 OVC015 04/02 A2978 RMK ST7SC1 PRESFR SLP088
  • 291600Z 05011KT 15SM BKN008 OVC015 04/02 A2981 RMK ST7SC1 PRESFR SLP099
  • 291500Z 05009KT 15SM BKN006 OVC015 03/02 A2986 RMK ST7SC1 SLP114

TAF AMD TAF CYVP
Valido dal 29 a 15 ore il 30 a 00 ore UTC


291518Z 2915/2924 06010KT P6SM BKN006 OVC015
TEMPO 2915/2917 SCT006 OVC015
FM291700 07015G25KT P6SM BKN020
TEMPO 2917/2920 SCT020 BKN030
FM292000 06018G28KT 21/2SM RA BR BKN006 OVC015
TEMPO 2920/2924 P6SM -RA OVC015 RMK NXT FCST BY 291800Z
FIR CZUL / America del Nord



MetMap, La meteo Aeronautica in un colpo d'occhio ! - Copyright ORBIFLY Dicembre 2007 - Disclaimer

ORBIFLY MET'MAP TEAM :

Programmazione e sviluppo : Alexandra Zaïnal
Concezione : Baudouin d'Aumeries
Aiuto per la programmazione : Marc-Olivier Méhu
Supporto tecnico e logistico : Manuel Goepfert
Aiuto per la traduzione : Arnaldo La Scala

Contatto : metmap@orbifly.com




FONTI E CREDITI :

   NOAA